»·PEaware :: UPS1030 KLAX-KLAS

UPS1030 :: KLAX-KLAS

FLIGHT INFORMATION

Flight Status: Arrived
Operator:
United Parcel Service
More flights by this operator :: More flights under this callsign
Pilot: Ryan B. (8502)
Aircraft: BOEING 727-200
(B722)
More flights by this aircraft type
Origin: KLAX Los Angeles Intl
United States
Destination: KLAS McCarran Intl
United States
More flights between these airports :: More routes between these airports
Route: +LOOP9 DAG CLARR2
File this flight plan on PilotEdge
Remarks:
Altitude:
(Current/Filed)
29,000ft
Speed:
(Current/Filed)
300kts
Departed: 17-May-17 01:18 PM
Arrived: 17-May-17 02:47 PM
Distance/Time
Traveled:
205nm/1:29
Distance/Time
To Go:
Arrived

Flight Plot

Page will automatically refresh every two minutes.

Flight plan parsing failed; only flown route is shown


Map Options




Map Legend


Flown Route
Filed Route
Departure Airport
Arrival Airport
Navaid (VOR, NDB)
Fix

Horizontal Profiles

Position Reports

Time Latitude Longitude Heading Altitude Ground
Speed
17-May-17 12:55 33.933885 -118.389008 173 108ft 0kts
17-May-17 12:56 33.933885 -118.389008 173 108ft 0kts
17-May-17 12:57 33.933885 -118.389008 173 108ft 0kts
17-May-17 12:58 33.933885 -118.389008 173 108ft 0kts
17-May-17 12:59 33.933885 -118.389008 173 108ft 0kts
17-May-17 13:00 33.933885 -118.389008 173 108ft 0kts
17-May-17 13:01 33.933885 -118.389008 173 108ft 0kts
17-May-17 13:02 33.933885 -118.389008 173 108ft 0kts
17-May-17 13:03 33.933885 -118.389008 173 108ft 0kts
17-May-17 13:04 33.933885 -118.389008 173 108ft 0kts
17-May-17 13:05 33.933885 -118.389008 173 108ft 0kts
17-May-17 13:06 33.933885 -118.389008 173 108ft 0kts
17-May-17 13:07 33.933885 -118.389008 173 108ft 0kts
17-May-17 13:08 33.933885 -118.389008 173 108ft 0kts
17-May-17 13:09 33.933885 -118.389008 173 108ft 0kts
17-May-17 13:10 33.933885 -118.389008 173 108ft 0kts
17-May-17 13:11 33.933885 -118.389008 173 108ft 0kts
17-May-17 13:12 33.934284 -118.389064 173 108ft 3kts
17-May-17 13:13 33.934355 -118.389074 173 108ft 0kts
17-May-17 13:14 33.934355 -118.389074 173 108ft 0kts
17-May-17 13:15 33.934355 -118.389074 173 108ft 0kts
17-May-17 13:16 33.934421 -118.388826 33 108ft 5kts
17-May-17 13:17 33.934861 -118.388570 19 107ft 2kts
17-May-17 13:18 33.935891 -118.384932 82 107ft 16kts
17-May-17 13:19 33.936476 -118.382738 17 103ft 8kts
17-May-17 13:20 33.936855 -118.387727 263 107ft 80kts
17-May-17 13:21 33.933269 -118.432066 266 1583ft 149kts
17-May-17 13:22 33.922863 -118.481327 250 3527ft 167kts
17-May-17 13:23 33.901377 -118.548117 247 5688ft 240kts
17-May-17 13:24 33.870708 -118.617988 219 9053ft 257kts
17-May-17 13:25 33.805845 -118.592294 111 11631ft 305kts
17-May-17 13:26 33.812846 -118.534078 36 13177ft 283kts
17-May-17 13:27 33.877970 -118.477582 29 14624ft 329kts
17-May-17 13:28 33.957266 -118.411879 29 15015ft 389kts
17-May-17 13:29 34.046337 -118.338433 28 14966ft 397kts
17-May-17 13:30 34.126393 -118.266184 30 14969ft 356kts
17-May-17 13:31 34.197771 -118.201738 31 14978ft 304kts
17-May-17 13:32 34.240960 -118.126878 82 15037ft 295kts
17-May-17 13:33 34.244866 -118.028407 82 15013ft 298kts
17-May-17 13:34 34.249252 -117.927885 81 15025ft 308kts
17-May-17 13:35 34.254464 -117.824853 81 15033ft 317kts
17-May-17 13:36 34.235611 -117.720338 111 15026ft 335kts
17-May-17 13:37 34.199113 -117.619128 111 14572ft 346kts
17-May-17 13:38 34.160725 -117.515828 111 13770ft 345kts
17-May-17 13:39 34.088067 -117.459465 193 12781ft 332kts
17-May-17 13:40 34.028182 -117.526962 241 11998ft 305kts
17-May-17 13:41 33.983020 -117.608474 242 11643ft 290kts
17-May-17 13:42 33.969922 -117.694509 269 10914ft 264kts
17-May-17 13:43 33.965675 -117.779287 269 10222ft 247kts
17-May-17 13:44 33.965756 -117.857453 280 9606ft 228kts
17-May-17 13:45 33.975588 -117.932403 280 8562ft 233kts
17-May-17 13:46 33.974360 -118.010053 264 7187ft 245kts
17-May-17 13:47 33.967252 -118.090129 262 5260ft 233kts
17-May-17 13:48 33.960336 -118.158986 261 3870ft 206kts
17-May-17 13:49 33.953252 -118.228461 261 2678ft 217kts
17-May-17 13:50 33.945736 -118.297600 264 1501ft 208kts
17-May-17 13:51 33.939763 -118.359595 263 529ft 195kts
17-May-17 13:52 33.935173 -118.402162 201 123ft 15kts
17-May-17 13:53 33.933240 -118.402136 175 123ft 0kts
17-May-17 13:56 33.933240 -118.402136 175 123ft 0kts
17-May-17 13:57 33.933240 -118.402136 175 123ft 0kts
17-May-17 13:58 33.933240 -118.402136 175 123ft 0kts
17-May-17 13:59 33.933240 -118.402136 175 123ft 0kts
17-May-17 14:00 33.933240 -118.402136 175 123ft 0kts
17-May-17 14:01 33.933240 -118.402136 175 123ft 0kts
17-May-17 14:02 33.933240 -118.402136 175 123ft 0kts
17-May-17 14:03 33.933620 -118.402181 174 123ft 3kts
17-May-17 14:04 33.933711 -118.402192 174 123ft 0kts
17-May-17 14:05 33.933710 -118.402192 174 123ft 0kts
17-May-17 14:06 33.933681 -118.402186 168 123ft 1kts
17-May-17 14:07 33.934346 -118.400176 82 120ft 18kts
17-May-17 14:08 33.935060 -118.393009 83 110ft 25kts
17-May-17 14:09 33.935985 -118.384041 82 105ft 18kts
17-May-17 14:10 33.936037 -118.383580 83 105ft 0kts
17-May-17 14:11 33.937297 -118.383234 270 103ft 5kts
17-May-17 14:12 33.934720 -118.407822 258 403ft 139kts
17-May-17 14:13 33.927112 -118.454218 246 2577ft 147kts
17-May-17 14:14 33.910064 -118.504047 248 4793ft 181kts
17-May-17 14:15 33.887636 -118.565737 248 6441ft 242kts
17-May-17 14:16 33.833004 -118.593266 150 9722ft 279kts
17-May-17 14:17 33.822613 -118.507811 48 11330ft 320kts
17-May-17 14:18 33.902817 -118.446187 18 13862ft 352kts
17-May-17 14:19 33.985504 -118.379741 60 15725ft 422kts
17-May-17 14:20 34.015788 -118.260033 92 19238ft 420kts
17-May-17 14:21 34.057538 -118.149949 32 21321ft 393kts
17-May-17 14:22 34.126323 -118.056895 42 23034ft 420kts
17-May-17 14:23 34.199481 -117.945114 50 23056ft 479kts
17-May-17 14:24 34.269647 -117.815530 50 27014ft 433kts
17-May-17 14:25 34.336118 -117.693684 50 27904ft 454kts
17-May-17 14:26 34.405046 -117.567318 50 28948ft 468kts
17-May-17 14:27 34.477291 -117.435868 50 28947ft 507kts
17-May-17 14:28 34.554443 -117.296561 50 28934ft 535kts
17-May-17 14:29 34.638215 -117.151064 47 28932ft 547kts
17-May-17 14:30 34.731799 -117.007274 45 28899ft 550kts
17-May-17 14:31 34.837452 -116.876901 54 28873ft 560kts
17-May-17 14:32 34.901677 -116.702342 52 28864ft 564kts
17-May-17 14:33 34.980978 -116.538180 56 28831ft 571kts
17-May-17 14:34 35.079862 -116.399090 34 26838ft 546kts
17-May-17 14:35 35.189436 -116.283096 34 24315ft 547kts
17-May-17 14:36 35.300054 -116.164879 37 23024ft 517kts
17-May-17 14:37 35.387966 -116.029869 41 21235ft 504kts
17-May-17 14:38 35.481420 -115.907249 42 19112ft 486kts
17-May-17 14:39 35.544195 -115.825367 43 16422ft 471kts
17-May-17 14:40 35.612688 -115.735065 43 15104ft 455kts
17-May-17 14:41 35.702425 -115.631597 39 13053ft 441kts
17-May-17 14:42 35.783878 -115.537210 40 12798ft 367kts
17-May-17 14:43 35.845878 -115.461715 42 11587ft 304kts
17-May-17 14:44 35.903182 -115.388526 43 9190ft 297kts
17-May-17 14:45 35.949886 -115.307470 56 7646ft 291kts
17-May-17 14:46 35.985132 -115.234087 55 6624ft 216kts
17-May-17 14:47 36.028518 -115.197662 22 4156ft 183kts
17-May-17 14:48 36.063899 -115.176950 21 2648ft 159kts
17-May-17 14:49 36.093663 -115.160037 350 2113ft 13kts
17-May-17 14:50 36.094446 -115.162790 271 2120ft 7kts
17-May-17 14:51 36.094446 -115.164180 269 2125ft 0kts

Navigation Log

Ident Type
Flight plan parsing failed, navigation log unavailable